createdAt,value
2018-03-08T00:01:11.675Z,99528.63
2018-03-08T00:03:39.192Z,99525.41
2018-03-08T00:06:06.705Z,99528.64
2018-03-08T00:08:34.222Z,99524.31
2018-03-08T00:11:01.750Z,99521.98
2018-03-08T00:13:29.275Z,99519.80
2018-03-08T00:15:56.800Z,99522.02
2018-03-08T00:18:24.359Z,99523.00
2018-03-08T00:20:51.875Z,99519.56
2018-03-08T00:23:19.398Z,99519.08
2018-03-08T00:25:46.910Z,99523.23
2018-03-08T00:28:14.424Z,99526.44
2018-03-08T00:30:41.955Z,99526.44
2018-03-08T00:33:09.483Z,99523.55
2018-03-08T00:35:37.031Z,99526.77
2018-03-08T00:38:04.539Z,99528.69
2018-03-08T00:40:32.059Z,99529.20
2018-03-08T00:42:59.578Z,99528.78
2018-03-08T00:45:27.098Z,99527.75
2018-03-08T00:47:54.634Z,99530.48
2018-03-08T00:50:22.158Z,99529.41
2018-03-08T00:52:49.680Z,99530.55
2018-03-08T00:55:17.197Z,99529.80
2018-03-08T00:57:44.718Z,99527.49
2018-03-08T01:00:12.257Z,99529.50
2018-03-08T01:02:39.775Z,99527.69
2018-03-08T01:05:07.314Z,99523.87
2018-03-08T01:07:34.843Z,99529.25
2018-03-08T01:10:02.373Z,99528.83
2018-03-08T01:12:29.894Z,99525.28
2018-03-08T01:14:57.421Z,99525.40
2018-03-08T01:17:24.936Z,99530.88
2018-03-08T01:19:52.488Z,99526.97
2018-03-08T01:22:20.004Z,99526.91
2018-03-08T01:24:47.528Z,99527.89
2018-03-08T01:27:15.075Z,99526.16
2018-03-08T01:29:42.602Z,99523.03
2018-03-08T01:32:10.121Z,99524.69
2018-03-08T01:34:37.637Z,99529.03
2018-03-08T01:37:05.154Z,99526.41
2018-03-08T01:39:32.671Z,99524.34
2018-03-08T01:42:00.193Z,99522.08
2018-03-08T01:44:27.718Z,99512.21
2018-03-08T01:46:55.238Z,99509.96
2018-03-08T01:49:22.750Z,99510.97
2018-03-08T01:52:02.318Z,99513.48
2018-03-08T01:54:29.838Z,99518.91
2018-03-08T01:56:57.378Z,99510.18
2018-03-08T01:59:24.910Z,99518.50
2018-03-08T02:01:52.430Z,99517.20
2018-03-08T02:04:19.952Z,99525.34
2018-03-08T02:06:47.474Z,99529.62
2018-03-08T02:09:14.993Z,99524.11
2018-03-08T02:11:42.504Z,99524.53
2018-03-08T02:14:10.029Z,99525.77
2018-03-08T02:16:37.541Z,99533.23
2018-03-08T02:19:05.049Z,99524.47
2018-03-08T02:21:32.566Z,99525.21
2018-03-08T02:24:00.086Z,99527.49
2018-03-08T02:26:27.621Z,99528.13
2018-03-08T02:28:55.137Z,99527.92
2018-03-08T02:31:22.655Z,99522.09
2018-03-08T02:33:50.175Z,99525.45
2018-03-08T02:36:17.689Z,99528.69
2018-03-08T02:38:45.211Z,99525.77
2018-03-08T02:41:12.729Z,99529.77
2018-03-08T02:43:40.245Z,99536.52
2018-03-08T02:46:07.759Z,99535.41
2018-03-08T02:48:35.276Z,99539.27
2018-03-08T02:51:02.787Z,99543.70
2018-03-08T02:53:30.330Z,99549.69
2018-03-08T02:55:57.854Z,99548.63
2018-03-08T02:58:25.405Z,99555.96
2018-03-08T03:00:52.922Z,99558.25
2018-03-08T03:03:20.446Z,99555.04
2018-03-08T03:05:47.970Z,99558.06
2018-03-08T03:08:15.508Z,99555.44
2018-03-08T03:10:43.027Z,99558.30
2018-03-08T03:13:10.542Z,99556.97
2018-03-08T03:15:38.064Z,99559.51
2018-03-08T03:18:05.593Z,99557.51
2018-03-08T03:20:33.115Z,99553.55
2018-03-08T03:23:00.639Z,99558.82
2018-03-08T03:25:28.161Z,99553.80
2018-03-08T03:27:55.682Z,99551.31
2018-03-08T03:30:23.199Z,99557.31
2018-03-08T03:32:50.724Z,99565.81
2018-03-08T03:35:18.242Z,99555.61
2018-03-08T03:37:45.789Z,99561.97
2018-03-08T03:40:13.309Z,99557.95
2018-03-08T03:42:40.820Z,99556.61
2018-03-08T03:45:08.339Z,99557.69
2018-03-08T03:47:35.868Z,99558.82
2018-03-08T03:50:03.404Z,99559.91
2018-03-08T03:52:30.925Z,99560.98
2018-03-08T03:54:58.437Z,99561.67
2018-03-08T03:57:25.963Z,99565.97
2018-03-08T03:59:53.500Z,99565.99
2018-03-08T04:02:21.027Z,99569.70
2018-03-08T04:04:48.555Z,99571.22
2018-03-08T04:07:16.079Z,99580.77
2018-03-08T04:09:43.602Z,99575.14
2018-03-08T04:12:11.163Z,99571.86
2018-03-08T04:14:38.684Z,99575.80
2018-03-08T04:17:06.239Z,99582.09
2018-03-08T04:19:33.775Z,99583.14
2018-03-08T04:22:01.298Z,99576.36
2018-03-08T04:24:28.830Z,99575.40
2018-03-08T04:26:56.351Z,99579.20
2018-03-08T04:29:23.881Z,99585.72
2018-03-08T04:31:51.402Z,99577.00
2018-03-08T04:34:18.930Z,99574.81
2018-03-08T04:36:46.453Z,99580.39
2018-03-08T04:39:14.005Z,99578.39
2018-03-08T04:41:41.540Z,99580.52
2018-03-08T04:44:09.065Z,99577.13
2018-03-08T04:46:36.592Z,99581.42
2018-03-08T04:49:04.112Z,99578.66
2018-03-08T04:51:31.628Z,99587.08
2018-03-08T04:53:59.140Z,99580.52
2018-03-08T04:56:26.657Z,99592.50
2018-03-08T04:58:54.177Z,99583.48
2018-03-08T05:01:21.689Z,99583.48
2018-03-08T05:03:49.210Z,99595.07
2018-03-08T05:06:16.789Z,99596.23
2018-03-08T05:08:44.312Z,99602.47
2018-03-08T05:11:11.863Z,99598.80
2018-03-08T05:13:39.385Z,99599.75
2018-03-08T05:16:06.904Z,99611.44
2018-03-08T05:18:34.442Z,99604.50
2018-03-08T05:21:01.956Z,99616.00
2018-03-08T05:23:29.474Z,99601.62
2018-03-08T05:25:56.998Z,99599.84
2018-03-08T05:28:24.525Z,99595.41
2018-03-08T05:30:52.082Z,99602.09
2018-03-08T05:33:19.592Z,99600.52
2018-03-08T05:35:47.114Z,99601.47
2018-03-08T05:38:14.631Z,99606.55
2018-03-08T05:40:42.157Z,99609.94
2018-03-08T05:43:09.681Z,99614.50
2018-03-08T05:45:37.201Z,99608.74
2018-03-08T05:48:04.721Z,99607.59
2018-03-08T05:50:32.238Z,99611.20
2018-03-08T05:52:59.763Z,99611.63
2018-03-08T05:55:27.283Z,99616.38
2018-03-08T05:57:54.797Z,99623.74
2018-03-08T06:00:22.313Z,99620.69
2018-03-08T06:02:49.832Z,99630.09
2018-03-08T06:05:17.349Z,99633.28
2018-03-08T06:07:44.863Z,99623.44
2018-03-08T06:10:12.383Z,99628.85
2018-03-08T06:12:39.893Z,99630.55
2018-03-08T06:15:07.411Z,99634.63
2018-03-08T06:17:34.929Z,99642.79
2018-03-08T06:20:02.440Z,99649.69
2018-03-08T06:22:29.974Z,99648.34
2018-03-08T06:24:57.489Z,99646.31
2018-03-08T06:27:25.018Z,99653.31
2018-03-08T06:29:52.537Z,99656.99
2018-03-08T06:32:20.058Z,99661.27
2018-03-08T06:34:47.572Z,99673.95
2018-03-08T06:37:15.122Z,99680.45
2018-03-08T06:39:42.643Z,99680.95
2018-03-08T06:42:10.175Z,99689.58
2018-03-08T06:44:38.669Z,99690.20
2018-03-08T06:47:06.347Z,99692.99
2018-03-08T06:49:33.892Z,99692.83
2018-03-08T06:52:01.502Z,99695.72
2018-03-08T06:54:28.957Z,99699.20
2018-03-08T06:56:56.474Z,99702.25
2018-03-08T06:59:24.093Z,99702.42
2018-03-08T07:01:51.814Z,99703.25
2018-03-08T07:04:19.362Z,99707.09
2018-03-08T07:06:46.882Z,99707.39
2018-03-08T07:09:14.393Z,99709.92
2018-03-08T07:11:41.911Z,99705.77
2018-03-08T07:14:09.429Z,99711.58
2018-03-08T07:16:36.946Z,99714.62
2018-03-08T07:19:04.719Z,99720.89
2018-03-08T07:21:32.238Z,99730.26
2018-03-08T07:23:59.750Z,99728.14
2018-03-08T07:26:27.293Z,99725.17
2018-03-08T07:28:54.839Z,99731.61
2018-03-08T07:31:22.360Z,99734.87
2018-03-08T07:33:49.901Z,99743.08
2018-03-08T07:36:17.440Z,99744.47
2018-03-08T07:38:44.966Z,99742.70
2018-03-08T07:41:12.493Z,99742.37
2018-03-08T07:43:40.014Z,99743.96
2018-03-08T07:46:07.546Z,99751.97
2018-03-08T07:48:35.122Z,99757.78
2018-03-08T07:51:02.674Z,99755.97
2018-03-08T07:53:30.189Z,99755.02
2018-03-08T07:55:57.712Z,99756.53
2018-03-08T07:58:25.241Z,99750.23
2018-03-08T08:00:52.757Z,99756.67
2018-03-08T08:03:20.273Z,99771.31
2018-03-08T08:05:59.708Z,99774.01
2018-03-08T08:11:31.455Z,99777.48
2018-03-08T08:13:58.975Z,99781.53
2018-03-08T08:16:26.495Z,99781.69
2018-03-08T08:18:54.006Z,99779.60
2018-03-08T08:21:21.616Z,99782.05
2018-03-08T08:23:49.124Z,99787.15
2018-03-08T08:26:16.650Z,99785.32
2018-03-08T08:28:44.298Z,99788.19
2018-03-08T08:31:11.871Z,99797.53
2018-03-08T08:33:39.389Z,99798.36
2018-03-08T08:36:06.926Z,99801.31
2018-03-08T08:38:34.435Z,99808.06
2018-03-08T08:41:01.963Z,99807.17
2018-03-08T08:43:29.480Z,99809.62
2018-03-08T08:45:57.003Z,99813.09
2018-03-08T08:48:24.580Z,99819.97
2018-03-08T08:50:52.101Z,99822.92
2018-03-08T08:53:19.629Z,99815.30
2018-03-08T08:55:47.154Z,99829.82
2018-03-08T08:58:14.676Z,99829.09
2018-03-08T09:00:42.194Z,99840.77
2018-03-08T09:03:09.718Z,99845.96
2018-03-08T09:05:37.251Z,99843.44
2018-03-08T09:08:04.770Z,99846.96
2018-03-08T09:10:32.291Z,99847.70
2018-03-08T09:12:59.807Z,99856.16
2018-03-08T09:15:27.325Z,99848.87
2018-03-08T09:17:54.834Z,99862.69
2018-03-08T09:20:22.354Z,99856.58
2018-03-08T09:22:49.870Z,99862.64
2018-03-08T09:25:17.387Z,99862.43
2018-03-08T09:27:44.924Z,99875.95
2018-03-08T09:30:12.457Z,99867.77
2018-03-08T09:32:39.977Z,99867.78
2018-03-08T09:35:07.494Z,99861.55
2018-03-08T09:37:35.010Z,99872.01
2018-03-08T09:40:02.531Z,99875.69
2018-03-08T09:42:30.057Z,99876.53
2018-03-08T09:44:57.573Z,99876.56
2018-03-08T09:47:25.095Z,99881.84
2018-03-08T09:49:52.604Z,99888.76
2018-03-08T09:52:20.126Z,99883.34
2018-03-08T09:54:47.638Z,99891.62
2018-03-08T09:57:15.154Z,99882.55
2018-03-08T09:59:42.672Z,99888.66
2018-03-08T10:02:11.079Z,99891.28
2018-03-08T10:04:38.594Z,99894.87
2018-03-08T10:07:06.110Z,99897.20
2018-03-08T10:09:33.626Z,99900.09
2018-03-08T10:12:01.148Z,99892.61
2018-03-08T10:14:28.675Z,99898.80
2018-03-08T10:16:56.195Z,99904.61
2018-03-08T10:19:23.723Z,99895.34
2018-03-08T10:21:51.241Z,99904.18
2018-03-08T10:24:18.762Z,99906.97
2018-03-08T10:26:46.280Z,99905.77
2018-03-08T10:29:13.793Z,99914.28
2018-03-08T10:31:41.317Z,99909.89
2018-03-08T10:34:08.848Z,99913.98
2018-03-08T10:36:36.366Z,99916.28
2018-03-08T10:39:03.894Z,99918.27
2018-03-08T10:43:58.973Z,99922.09
2018-03-08T10:46:26.481Z,99929.44
2018-03-08T10:51:21.560Z,99940.97
2018-03-08T10:53:49.079Z,99942.84
2018-03-08T10:56:16.600Z,99941.27
2018-03-08T10:58:44.213Z,99941.87
2018-03-08T11:01:17.381Z,99949.46
2018-03-08T11:03:48.774Z,99945.59
2018-03-08T11:06:20.306Z,99943.18
2018-03-08T11:08:47.833Z,99946.53
2018-03-08T11:11:15.343Z,99945.98
2018-03-08T11:13:42.862Z,99947.36
2018-03-08T11:16:10.380Z,99936.72
2018-03-08T11:18:37.899Z,99943.58
2018-03-08T11:21:05.413Z,99941.00
2018-03-08T11:23:32.934Z,99941.35
2018-03-08T11:26:00.457Z,99943.45
2018-03-08T11:28:27.975Z,99945.46
2018-03-08T11:30:55.480Z,99936.92
2018-03-08T11:33:22.999Z,99940.02
2018-03-08T11:35:50.506Z,99944.64
2018-03-08T11:38:18.034Z,99944.25
2018-03-08T11:40:45.555Z,99932.56
2018-03-08T11:43:13.074Z,99943.31
2018-03-08T11:45:40.594Z,99948.91
2018-03-08T11:48:08.138Z,99936.73
2018-03-08T11:50:35.653Z,99942.28
2018-03-08T11:53:03.175Z,99941.23
2018-03-08T11:55:30.686Z,99941.58
2018-03-08T11:57:58.212Z,99946.49
2018-03-08T12:00:25.733Z,99940.52
2018-03-08T12:02:53.245Z,99952.79
2018-03-08T12:05:20.789Z,99938.68
2018-03-08T12:07:48.422Z,99937.82
2018-03-08T12:10:15.941Z,99934.14
2018-03-08T12:12:43.461Z,99929.84
2018-03-08T12:15:10.977Z,99931.77
2018-03-08T12:17:38.491Z,99933.86
2018-03-08T12:20:06.009Z,99938.11
2018-03-08T12:22:33.528Z,99936.67
2018-03-08T12:25:01.062Z,99936.29
2018-03-08T12:27:28.580Z,99937.91
2018-03-08T12:29:56.105Z,99930.67
2018-03-08T12:32:23.634Z,99928.86
2018-03-08T12:34:51.149Z,99935.50
2018-03-08T12:37:18.657Z,99926.97
2018-03-08T12:39:46.172Z,99920.70
2018-03-08T12:42:13.737Z,99922.81
2018-03-08T12:44:41.260Z,99921.67
2018-03-08T12:47:08.789Z,99929.41
2018-03-08T12:49:36.297Z,99917.25
2018-03-08T12:52:03.806Z,99931.17
2018-03-08T12:54:31.346Z,99921.91
2018-03-08T12:56:58.874Z,99916.98
2018-03-08T12:59:26.386Z,99924.82
2018-03-08T13:01:53.907Z,99912.69
2018-03-08T13:04:21.467Z,99914.64
2018-03-08T13:06:48.994Z,99908.75
2018-03-08T13:09:16.510Z,99907.38
2018-03-08T13:11:44.038Z,99911.30
2018-03-08T13:14:11.573Z,99912.91
2018-03-08T13:16:39.105Z,99908.19
2018-03-08T13:19:06.622Z,99906.36
2018-03-08T13:21:34.143Z,99899.36
2018-03-08T13:24:01.676Z,99902.68
2018-03-08T13:26:29.194Z,99904.78
2018-03-08T13:28:56.720Z,99905.66
2018-03-08T13:31:24.246Z,99906.98
2018-03-08T13:33:51.757Z,99900.41
2018-03-08T13:36:19.281Z,99899.98
2018-03-08T13:38:46.826Z,99896.59
2018-03-08T13:41:14.336Z,99897.64
2018-03-08T13:43:41.859Z,99905.45
2018-03-08T13:46:09.381Z,99896.38
2018-03-08T13:48:36.913Z,99896.56
2018-03-08T13:51:04.458Z,99901.96
2018-03-08T13:53:31.985Z,99897.33
2018-03-08T13:55:59.509Z,99893.30
2018-03-08T13:58:27.029Z,99895.61
2018-03-08T14:00:54.558Z,99897.89
2018-03-08T14:03:22.077Z,99897.23
2018-03-08T14:05:49.595Z,99898.80
2018-03-08T14:08:17.106Z,99893.38
2018-03-08T14:10:44.624Z,99901.61
2018-03-08T14:13:12.287Z,99895.54
2018-03-08T14:15:39.814Z,99892.93
2018-03-08T14:18:07.332Z,99890.90
2018-03-08T14:20:34.866Z,99886.02
2018-03-08T14:23:02.382Z,99892.81
2018-03-08T14:25:29.904Z,99887.20
2018-03-08T14:27:57.438Z,99895.82
2018-03-08T14:30:24.956Z,99891.63
2018-03-08T14:32:52.501Z,99889.93
2018-03-08T14:35:20.016Z,99886.89
2018-03-08T14:37:47.536Z,99887.55
2018-03-08T14:40:15.058Z,99881.79
2018-03-08T14:42:42.573Z,99877.05
2018-03-08T14:45:10.082Z,99876.66
2018-03-08T14:47:37.606Z,99864.98
2018-03-08T14:50:05.130Z,99871.86
2018-03-08T14:52:32.626Z,99876.29
2018-03-08T14:55:00.146Z,99870.91
2018-03-08T14:57:27.674Z,99862.92
2018-03-08T14:59:55.193Z,99858.78
2018-03-08T15:02:22.707Z,99860.83
2018-03-08T15:04:50.209Z,99865.02
2018-03-08T15:07:17.726Z,99869.25
2018-03-08T15:09:45.325Z,99867.52
2018-03-08T15:12:12.830Z,99864.23
2018-03-08T15:14:40.489Z,99870.08
2018-03-08T15:17:07.992Z,99858.60
2018-03-08T15:19:35.512Z,99868.11
2018-03-08T15:22:03.028Z,99857.79
2018-03-08T15:24:30.542Z,99853.42
2018-03-08T15:26:58.085Z,99853.63
2018-03-08T15:29:25.606Z,99853.61
2018-03-08T15:31:53.138Z,99854.77
2018-03-08T15:34:20.645Z,99850.38
2018-03-08T15:36:48.154Z,99846.80
2018-03-08T15:39:15.649Z,99852.14
2018-03-08T15:41:43.159Z,99849.09
2018-03-08T15:44:10.671Z,99847.33
2018-03-08T15:46:38.178Z,99844.23
2018-03-08T15:49:05.747Z,99838.27
2018-03-08T15:51:33.278Z,99847.16
2018-03-08T15:54:00.790Z,99846.83
2018-03-08T15:56:28.296Z,99849.03
2018-03-08T15:58:55.798Z,99845.12
2018-03-08T16:01:23.316Z,99841.53
2018-03-08T16:03:50.822Z,99838.71
2018-03-08T16:09:37.301Z,99843.91
2018-03-08T16:12:04.821Z,99846.91
2018-03-08T16:14:32.349Z,99843.59
2018-03-08T16:17:00.083Z,99847.55
2018-03-08T16:19:27.599Z,99845.63
2018-03-08T16:21:55.098Z,99840.20
2018-03-08T16:24:22.709Z,99841.46
2018-03-08T16:26:50.249Z,99842.30
2018-03-08T16:29:17.784Z,99844.70
2018-03-08T16:31:45.303Z,99842.44
2018-03-08T16:34:12.821Z,99836.29
2018-03-08T16:36:40.325Z,99834.66
2018-03-08T16:39:07.830Z,99835.27
2018-03-08T16:41:35.331Z,99831.33
2018-03-08T16:44:02.829Z,99836.67
2018-03-08T16:46:30.329Z,99835.70
2018-03-08T16:48:57.829Z,99837.28
2018-03-08T16:51:25.345Z,99835.47
2018-03-08T16:53:52.852Z,99832.16
2018-03-08T16:56:20.356Z,99835.89
2018-03-08T16:58:47.856Z,99828.77
2018-03-08T17:01:15.363Z,99833.07
2018-03-08T17:03:42.887Z,99830.55
2018-03-08T17:06:10.401Z,99834.00
2018-03-08T17:08:37.901Z,99833.62
2018-03-08T17:11:05.413Z,99833.87
2018-03-08T17:13:32.924Z,99840.73
2018-03-08T17:16:00.483Z,99833.63
2018-03-08T17:18:28.237Z,99839.39
2018-03-08T17:20:55.755Z,99836.38
2018-03-08T17:23:23.261Z,99839.09
2018-03-08T17:25:50.773Z,99840.30
2018-03-08T17:28:18.313Z,99842.54
2018-03-08T17:30:45.855Z,99835.79
2018-03-08T17:33:13.372Z,99844.44
2018-03-08T17:35:40.882Z,99834.53
2018-03-08T17:38:08.395Z,99841.20
2018-03-08T17:40:35.906Z,99836.09
2018-03-08T17:43:03.414Z,99839.27
2018-03-08T17:45:30.928Z,99835.32
2018-03-08T17:47:58.438Z,99837.66
2018-03-08T17:50:25.953Z,99830.45
2018-03-08T17:52:53.472Z,99834.85
2018-03-08T17:55:20.984Z,99834.81
2018-03-08T17:57:48.517Z,99835.33
2018-03-08T18:00:16.028Z,99845.88
2018-03-08T18:02:43.536Z,99837.52
2018-03-08T18:05:11.055Z,99836.61
2018-03-08T18:07:38.567Z,99833.75
2018-03-08T18:10:06.116Z,99831.70
2018-03-08T18:12:33.628Z,99834.74
2018-03-08T18:15:01.143Z,99834.98
2018-03-08T18:17:28.659Z,99833.06
2018-03-08T18:19:56.179Z,99835.83
2018-03-08T18:22:23.680Z,99830.25
2018-03-08T18:24:51.208Z,99824.53
2018-03-08T18:27:18.729Z,99827.18
2018-03-08T18:29:46.243Z,99823.59
2018-03-08T18:32:13.758Z,99823.05
2018-03-08T18:34:41.253Z,99821.30
2018-03-08T18:37:08.761Z,99826.56
2018-03-08T18:39:36.279Z,99822.09
2018-03-08T18:42:03.779Z,99820.10
2018-03-08T18:44:31.285Z,99818.93
2018-03-08T18:46:58.780Z,99810.55
2018-03-08T18:49:26.296Z,99809.41
2018-03-08T18:51:53.796Z,99816.16
2018-03-08T18:54:21.313Z,99807.73
2018-03-08T18:56:48.838Z,99806.77
2018-03-08T18:59:16.354Z,99804.81
2018-03-08T19:01:43.893Z,99795.95
2018-03-08T19:04:11.396Z,99797.84
2018-03-08T19:06:38.912Z,99790.63
2018-03-08T19:09:06.417Z,99791.91
2018-03-08T19:11:33.935Z,99779.64
2018-03-08T19:14:01.450Z,99783.53
2018-03-08T19:16:28.959Z,99783.80
2018-03-08T19:18:56.469Z,99785.57
2018-03-08T19:21:23.972Z,99785.25
2018-03-08T19:23:51.486Z,99778.58
2018-03-08T19:26:18.992Z,99783.72
2018-03-08T19:28:46.556Z,99779.64
2018-03-08T19:31:14.065Z,99778.89
2018-03-08T19:33:41.576Z,99779.87
2018-03-08T19:36:09.076Z,99781.72
2018-03-08T19:38:36.648Z,99787.68
2018-03-08T19:41:04.159Z,99784.31
2018-03-08T19:43:31.652Z,99775.66
2018-03-08T19:45:59.186Z,99779.89
2018-03-08T19:48:26.734Z,99780.44
2018-03-08T19:50:54.250Z,99778.16
2018-03-08T19:53:21.754Z,99776.02
2018-03-08T19:55:49.283Z,99773.04
2018-03-08T19:58:16.907Z,99774.38
2018-03-08T20:00:44.420Z,99764.22
2018-03-08T20:03:12.044Z,99765.83
2018-03-08T20:05:39.579Z,99763.38
2018-03-08T20:08:07.101Z,99767.23
2018-03-08T20:10:34.615Z,99768.85
2018-03-08T20:13:02.849Z,99764.66
2018-03-08T20:15:30.364Z,99759.69
2018-03-08T20:17:57.877Z,99765.36
2018-03-08T20:20:25.385Z,99765.84
2018-03-08T20:22:52.888Z,99757.69
2018-03-08T20:25:20.416Z,99757.42
2018-03-08T20:27:47.933Z,99747.94
2018-03-08T20:30:16.069Z,99750.75
2018-03-08T20:32:44.064Z,99758.98
2018-03-08T20:35:11.707Z,99754.80
2018-03-08T20:37:39.315Z,99751.16
2018-03-08T20:40:06.852Z,99743.27
2018-03-08T20:42:34.408Z,99752.29
2018-03-08T20:45:01.958Z,99749.75
2018-03-08T20:47:29.500Z,99743.94
2018-03-08T20:49:57.036Z,99752.95
2018-03-08T20:52:24.605Z,99738.30
2018-03-08T20:54:52.158Z,99745.80
2018-03-08T20:57:19.682Z,99741.37
2018-03-08T20:59:47.224Z,99752.27
2018-03-08T21:02:14.790Z,99754.78
2018-03-08T21:04:42.344Z,99761.03
2018-03-08T21:07:09.877Z,99752.30
2018-03-08T21:09:37.416Z,99759.19
2018-03-08T21:12:04.950Z,99767.02
2018-03-08T21:14:32.496Z,99766.52
2018-03-08T21:17:00.038Z,99767.18
2018-03-08T21:19:27.582Z,99760.88
2018-03-08T21:21:55.146Z,99762.14
2018-03-08T21:24:22.694Z,99771.27
2018-03-08T21:26:50.851Z,99768.94
2018-03-08T21:29:20.155Z,99770.03
2018-03-08T21:31:47.692Z,99771.56
2018-03-08T21:34:15.230Z,99777.41
2018-03-08T21:36:42.908Z,99773.58
2018-03-08T21:39:11.323Z,99767.55
2018-03-08T21:41:38.873Z,99763.43
2018-03-08T21:44:06.431Z,99759.02
2018-03-08T21:46:33.966Z,99761.79
2018-03-08T21:49:01.514Z,99746.75
2018-03-08T21:51:29.065Z,99741.47
2018-03-08T21:53:56.611Z,99739.52
2018-03-08T21:56:24.146Z,99732.44
2018-03-08T21:58:51.695Z,99727.27
2018-03-08T22:01:19.237Z,99731.61
2018-03-08T22:03:46.782Z,99734.44
2018-03-08T22:06:14.326Z,99735.56
2018-03-08T22:08:41.864Z,99730.31
2018-03-08T22:11:10.228Z,99721.59
2018-03-08T22:13:37.767Z,99717.17
2018-03-08T22:16:05.308Z,99697.16
2018-03-08T22:18:33.638Z,99692.05
2018-03-08T22:21:02.359Z,99678.38
2018-03-08T22:23:29.920Z,99680.55
2018-03-08T22:25:58.522Z,99680.86
2018-03-08T22:28:26.062Z,99678.38
2018-03-08T22:30:54.394Z,99674.06
2018-03-08T22:33:21.940Z,99680.13
2018-03-08T22:35:49.474Z,99687.48
2018-03-08T22:38:17.031Z,99700.37
2018-03-08T22:40:44.575Z,99714.83
2018-03-08T22:43:13.030Z,99722.45
2018-03-08T22:45:40.584Z,99730.33
2018-03-08T22:48:08.123Z,99745.33
2018-03-08T22:50:35.688Z,99756.00
2018-03-08T22:53:03.976Z,99747.88
2018-03-08T22:55:31.516Z,99761.95
2018-03-08T22:58:03.335Z,99762.55
2018-03-08T23:00:30.886Z,99770.46
2018-03-08T23:03:04.114Z,99779.03
2018-03-08T23:05:31.675Z,99780.63
2018-03-08T23:07:59.246Z,99780.79
2018-03-08T23:10:26.794Z,99774.21
2018-03-08T23:12:55.286Z,99772.41
2018-03-08T23:15:22.833Z,99775.90
2018-03-08T23:17:50.599Z,99778.88
2018-03-08T23:20:18.135Z,99796.73
2018-03-08T23:22:45.687Z,99802.20
2018-03-08T23:25:13.235Z,99795.74
2018-03-08T23:27:40.790Z,99800.52
2018-03-08T23:30:08.318Z,99789.33
2018-03-08T23:32:36.045Z,99788.14
2018-03-08T23:35:03.701Z,99776.17
2018-03-08T23:37:32.078Z,99751.67
2018-03-08T23:39:59.614Z,99764.52
2018-03-08T23:42:27.729Z,99760.34
2018-03-08T23:44:55.265Z,99754.27
2018-03-08T23:47:22.835Z,99752.28
2018-03-08T23:49:50.379Z,99766.91
2018-03-08T23:52:18.648Z,99767.73
2018-03-08T23:54:46.184Z,99772.13
2018-03-08T23:57:13.735Z,99776.61
2018-03-08T23:59:41.514Z,99773.67
